ADDS METAR Data INFO
IDs: Format: Raw Decoded Include TAF

Data at: 0920 UTC 13 Dec 2017

KDTO 130853Z AUTO 18005KT 10SM CLR 03/M03 A3010 RMK AO2 SLP192 T00331028 56022
KDTO 130753Z AUTO 18005KT 10SM CLR 02/M03 A3012 RMK AO2 SLP199 T00171033
KDTO 130653Z AUTO 18004KT 10SM CLR 01/M04 A3014 RMK AO2 SLP206 T00111039
KDTO 130553Z AUTO 19003KT 10SM CLR 01/M04 A3017 RMK AO2 SLP216 T00111039 10094 21006 401281006 58024
KDTO 130453Z AUTO 00000KT 10SM CLR 01/M04 A3019 RMK AO2 SLP224 T00111039
KDTO 130353Z 00000KT 10SM CLR 03/M04 A3022 RMK AO2 SLP233 T00281039
KDTO 130253Z 27003KT 10SM CLR 03/M04 A3024 RMK AO2 SLP240 T00281039 58008
KDTO 130153Z 29006KT 10SM CLR 06/M04 A3025 RMK AO2 SLP246 T00561039
KDTO 130053Z 28003KT 10SM CLR 07/M03 A3026 RMK AO2 SLP249 T00721033
KDTO 122353Z 32004KT 10SM CLR 09/M03 A3026 RMK AO2 SLP247 T00941033 10128 20094 56018
KDTO 122253Z 29008KT 10SM CLR 12/M03 A3027 RMK AO2 SLP249 T01171028
KDTO 122153Z AUTO 32009KT 10SM CLR 13/M03 A3029 RMK AO2 SLP256 T01281028
KDTO 122053Z AUTO 34008KT 10SM CLR 13/M03 A3032 RMK AO2 SLP265 T01281028 56034
KDTO 121953Z 34008G14KT 10SM CLR 12/M03 A3034 RMK AO2 SLP272 T01221033
KDTO 121853Z 34010KT 10SM CLR 12/M03 A3038 RMK AO2 SLP284 T01171028
KDTO 121753Z 35011KT 10SM CLR 11/M02 A3042 RMK AO2 SLP300 T01061017 10106 20022 58004
KDTO 121653Z 36012KT 10SM CLR 09/M01 A3045 RMK AO2 SLP310 T00941011
KDTO 121553Z 36016KT 10SM CLR 08/M01 A3045 RMK AO2 SLP309 T00781011
KDTO 121453Z 34008KT 10SM CLR 06/M01 A3043 RMK AO2 SLP304 T00611011 51020 $
KDTO 121353Z 33008KT 10SM CLR 03/M02 A3042 RMK AO2 SLP301 T00281022 $
KDTO 121253Z 32008KT 10SM CLR 03/M03 A3040 RMK AO2 SLP292 T00331028 $
KDTO 121153Z 32007KT 10SM CLR 05/M02 A3037 RMK AO2 SLP283 T00501022 10122 20050 53019 $
KDTO 121053Z AUTO 35011KT 10SM CLR 07/M02 A3035 RMK AO2 SLP275 T00671022 $
KDTO 120953Z AUTO 35015KT 10SM CLR 08/M03 A3033 RMK AO2 SLP267 T00781033 $
KDTO 120853Z AUTO 35009KT 10SM CLR 08/M04 A3032 RMK AO2 SLP261 T00831044 51022 $
KDTO 120753Z AUTO 36009KT 10SM CLR 09/M06 A3030 RMK AO2 SLP258 T00941056
KDTO 120653Z AUTO 36015KT 10SM CLR 12/M06 A3028 RMK AO2 SLP249 T01171061
KDTO 120553Z AUTO 35009KT 10SM CLR 11/M06 A3025 RMK AO2 SLP239 T01061056 10189 20078 402500000 53026
KDTO 120453Z AUTO 35007KT 10SM CLR 09/M06 A3022 RMK AO2 SLP229 T00891056
KDTO 120353Z 35009KT 10SM CLR 11/M06 A3020 RMK AO2 SLP222 T01111056
KDTO 120253Z 33007KT 10SM CLR 11/M06 A3017 RMK AO2 SLP215 T01111056 51020
KDTO 120153Z 32007KT 10SM CLR 13/M06 A3015 RMK AO2 SLP209 T01331061
KDTO 120053Z 26006KT 10SM CLR 17/M08 A3013 RMK AO2 SLP202 T01671078
KDTO 112353Z 27006KT 10SM CLR 19/M08 A3011 RMK AO2 SLP193 T01891078 10250 20189 53006
KDTO 112253Z 26008KT 10SM CLR 23/M07 A3010 RMK AO2 SLP188 T02281072
KDTO 112153Z 26011KT 10SM CLR 24/M07 A3009 RMK AO2 SLP184 T02441072